Time;durP1;ratioP1;P1;durP2;ratioP2;P2;SDS_P1;SDS_P2;PMS_P1;PMS_P2;Temp;Humidity;BMP_temperature;BMP_pressure;BME280_temperature;BME280_humidity;BME280_pressure;Samples;Min_cycle;Max_cycle;Signal;HPM_P1;HPM_P2
2022/07/29 00:01:48;;;;;;;6.75;1.73;;;23.00;99.90;;;;;;4921496;29;20032;-79
2022/07/29 00:04:14;;;;;;;5.82;1.48;;;23.00;99.90;;;;;;4936970;29;20101;-78
2022/07/29 00:06:40;;;;;;;5.18;1.60;;;22.90;99.90;;;;;;4939878;29;20444;-79
2022/07/29 00:09:06;;;;;;;5.15;2.00;;;23.00;99.90;;;;;;4941340;29;20396;-79
2022/07/29 00:11:32;;;;;;;3.55;1.70;;;23.00;99.90;;;;;;4936832;29;20027;-78
2022/07/29 00:13:58;;;;;;;5.07;1.50;;;22.90;99.90;;;;;;4937491;29;20090;-79
2022/07/29 00:16:23;;;;;;;9.70;2.05;;;22.90;99.90;;;;;;4936834;29;20578;-78
2022/07/29 00:18:49;;;;;;;6.47;1.92;;;22.90;99.90;;;;;;4936902;29;20036;-79
2022/07/29 00:21:15;;;;;;;9.10;2.10;;;22.90;99.90;;;;;;4937219;29;20035;-78
2022/07/29 00:23:41;;;;;;;6.32;1.80;;;22.90;99.90;;;;;;4936870;29;20393;-79
2022/07/29 00:26:06;;;;;;;6.13;1.77;;;22.90;99.90;;;;;;4936593;29;20095;-78
2022/07/29 00:28:32;;;;;;;10.15;2.20;;;22.90;99.90;;;;;;4936797;29;20032;-79
2022/07/29 00:30:57;;;;;;;5.50;1.90;;;22.80;99.90;;;;;;4936719;29;20028;-79
2022/07/29 00:33:23;;;;;;;5.03;1.83;;;22.80;99.90;;;;;;4936884;29;20036;-79
2022/07/29 00:35:49;;;;;;;4.60;1.83;;;22.80;99.90;;;;;;4930756;29;20051;-78
2022/07/29 00:38:18;;;;;;;4.55;1.50;;;22.80;99.90;;;;;;4954985;28;20414;-78
2022/07/29 00:40:44;;;;;;;7.00;1.50;;;22.80;99.90;;;;;;4947619;29;20031;-78
2022/07/29 00:43:10;;;;;;;4.78;1.40;;;22.80;99.90;;;;;;4954390;29;20019;-78
2022/07/29 00:45:36;;;;;;;5.00;1.50;;;22.80;99.70;;;;;;4955981;29;20022;-78
2022/07/29 00:48:04;;;;;;;3.80;1.63;;;22.80;99.30;;;;;;4955701;29;20027;-78
2022/07/29 00:50:31;;;;;;;4.32;1.50;;;22.80;98.70;;;;;;4955474;29;20027;-78
2022/07/29 00:52:58;;;;;;;4.25;1.80;;;22.80;99.00;;;;;;4953832;28;20545;-78
2022/07/29 00:55:24;;;;;;;6.38;1.60;;;22.80;99.60;;;;;;4955790;29;20035;-79
2022/07/29 00:57:50;;;;;;;7.00;1.67;;;22.70;99.90;;;;;;4955517;29;20101;-79
2022/07/29 01:00:23;;;;;;;3.92;1.42;;;22.70;99.90;;;;;;4955204;29;20023;-78
2022/07/29 01:02:49;;;;;;;4.40;1.48;;;22.70;99.90;;;;;;4955288;29;20031;-79
2022/07/29 01:05:17;;;;;;;4.00;1.58;;;22.60;99.90;;;;;;4955735;29;20027;-78
2022/07/29 01:07:45;;;;;;;4.97;1.75;;;22.60;99.90;;;;;;4942941;28;20115;-78
2022/07/29 01:10:13;;;;;;;3.83;1.50;;;22.70;99.90;;;;;;4936307;29;20510;-78
2022/07/29 01:12:40;;;;;;;6.22;1.60;;;22.70;99.20;;;;;;4941261;28;20031;-78
2022/07/29 01:15:07;;;;;;;3.03;1.30;;;22.70;99.20;;;;;;4974445;28;20456;-78
2022/07/29 01:17:51;;;;;;;7.85;2.22;;;22.70;99.90;;;;;;4974176;28;20105;-78
2022/07/29 01:20:55;;;;;;;16.25;2.42;;;22.60;99.90;;;;;;4974307;28;20026;-78
2022/07/29 01:23:41;;;;;;;8.90;1.50;;;22.50;99.90;;;;;;4973923;28;20038;-79
2022/07/29 01:26:07;;;;;;;3.85;1.73;;;22.30;99.90;;;;;;4965027;28;20058;-78
2022/07/29 01:28:59;;;;;;;5.15;1.55;;;22.20;99.90;;;;;;4947083;29;20487;-78
2022/07/29 01:31:35;;;;;;;5.53;1.63;;;22.10;99.90;;;;;;4954660;29;20054;-78
2022/07/29 01:34:06;;;;;;;4.82;1.65;;;22.10;99.90;;;;;;4954933;29;20050;-78
2022/07/29 01:36:36;;;;;;;7.72;1.70;;;22.00;99.90;;;;;;4952633;29;20082;-78
2022/07/29 01:39:27;;;;;;;4.07;1.77;;;21.90;99.90;;;;;;4955200;29;20031;-78
2022/07/29 01:41:58;;;;;;;5.43;1.50;;;22.00;99.90;;;;;;4943427;29;20051;-79
2022/07/29 01:44:45;;;;;;;3.25;1.67;;;21.90;99.90;;;;;;4945836;29;20036;-79
2022/07/29 01:47:15;;;;;;;9.63;1.98;;;21.80;99.90;;;;;;4935347;29;20024;-78
2022/07/29 01:49:47;;;;;;;4.38;1.63;;;21.80;99.90;;;;;;4935348;29;20032;-79
2022/07/29 01:52:39;;;;;;;8.50;1.48;;;21.80;99.90;;;;;;4934680;29;20027;-78
2022/07/29 01:55:13;;;;;;;3.75;1.50;;;21.70;99.90;;;;;;4934776;29;20048;-78
2022/07/29 01:57:42;;;;;;;7.20;1.83;;;21.60;99.90;;;;;;4935197;29;20039;-78
2022/07/29 02:00:09;;;;;;;5.10;1.45;;;21.70;99.90;;;;;;4934862;29;20503;-78
2022/07/29 02:02:37;;;;;;;4.00;1.48;;;21.60;99.90;;;;;;4933754;29;20023;-78
2022/07/29 02:05:05;;;;;;;8.23;1.65;;;21.60;99.90;;;;;;4935204;29;20024;-79
2022/07/29 02:07:33;;;;;;;5.47;1.55;;;21.60;99.90;;;;;;4958226;28;20019;-79
2022/07/29 02:10:02;;;;;;;14.02;1.85;;;21.60;99.90;;;;;;4973836;28;20031;-79
2022/07/29 02:12:29;;;;;;;6.03;2.10;;;21.60;99.90;;;;;;4954882;28;20488;-78
2022/07/29 02:14:59;;;;;;;8.68;2.08;;;21.60;99.90;;;;;;4934849;29;20060;-78
2022/07/29 02:17:39;;;;;;;5.93;1.83;;;21.50;99.90;;;;;;4935086;29;20062;-79
2022/07/29 02:20:06;;;;;;;5.90;2.00;;;21.50;99.90;;;;;;4966465;28;20027;-78
2022/07/29 02:22:35;;;;;;;4.80;1.98;;;21.60;99.90;;;;;;4973687;28;20047;-78
2022/07/29 02:25:01;;;;;;;3.88;1.40;;;21.50;99.90;;;;;;4973305;28;20041;-78
2022/07/29 02:27:29;;;;;;;12.60;1.90;;;21.40;99.90;;;;;;4973215;28;20030;-78
2022/07/29 02:29:57;;;;;;;6.47;1.90;;;21.40;99.90;;;;;;4969689;28;20414;-78
2022/07/29 02:32:25;;;;;;;7.72;1.83;;;21.40;99.90;;;;;;4935208;29;20038;-78
2022/07/29 02:34:52;;;;;;;7.95;2.28;;;21.40;99.90;;;;;;4932878;29;20540;-78
2022/07/29 02:37:18;;;;;;;11.27;2.00;;;21.30;99.90;;;;;;4950945;29;20028;-78
2022/07/29 02:39:47;;;;;;;3.70;1.45;;;21.30;99.90;;;;;;4953872;29;20098;-78
2022/07/29 02:42:18;;;;;;;5.70;1.42;;;21.20;99.90;;;;;;4953906;29;20110;-78
2022/07/29 02:44:44;;;;;;;6.75;1.65;;;21.00;99.90;;;;;;4953586;29;20031;-79
2022/07/29 02:47:34;;;;;;;7.00;1.67;;;21.20;99.90;;;;;;4953775;28;20110;-78
2022/07/29 02:50:25;;;;;;;5.75;1.75;;;20.90;99.90;;;;;;4953535;29;20030;-78
2022/07/29 02:52:58;;;;;;;4.65;1.92;;;20.90;99.90;;;;;;4936307;29;20027;-78
2022/07/29 02:55:44;;;;;;;5.30;1.60;;;21.00;99.90;;;;;;4936551;29;20035;-78
2022/07/29 02:58:28;;;;;;;5.88;1.98;;;21.00;99.90;;;;;;4938053;29;20031;-78
2022/07/29 03:00:57;;;;;;;4.55;1.52;;;21.00;99.90;;;;;;4934391;29;20502;-79
2022/07/29 03:03:27;;;;;;;3.63;1.40;;;20.90;99.90;;;;;;4935716;29;20424;-78
2022/07/29 03:05:56;;;;;;;3.42;1.20;;;20.90;99.90;;;;;;4938248;29;20039;-78
2022/07/29 03:08:22;;;;;;;4.40;1.50;;;21.00;99.90;;;;;;4938413;29;20054;-78
2022/07/29 03:10:48;;;;;;;3.95;1.35;;;21.00;99.90;;;;;;4938451;29;20488;-79
2022/07/29 03:13:15;;;;;;;4.40;1.50;;;21.00;99.90;;;;;;4937814;29;20167;-78
2022/07/29 03:15:44;;;;;;;7.30;1.30;;;21.00;99.90;;;;;;4946007;29;20030;-78
2022/07/29 03:18:10;;;;;;;4.55;1.50;;;21.00;99.90;;;;;;4957486;29;20476;-78
2022/07/29 03:20:37;;;;;;;4.32;1.95;;;20.90;99.90;;;;;;4962966;28;20026;-79
2022/07/29 03:23:04;;;;;;;4.72;1.50;;;21.00;99.90;;;;;;4976629;28;20023;-78
2022/07/29 03:25:30;;;;;;;4.22;1.50;;;20.80;99.90;;;;;;4957148;29;20023;-78
2022/07/29 03:27:56;;;;;;;3.15;1.30;;;20.90;99.90;;;;;;4957026;29;20029;-78
2022/07/29 03:30:22;;;;;;;2.85;1.20;;;20.90;99.90;;;;;;4957474;29;20034;-78
2022/07/29 03:32:52;;;;;;;6.68;1.80;;;20.90;99.90;;;;;;4956465;29;20019;-78
2022/07/29 03:35:19;;;;;;;4.15;1.60;;;20.80;99.90;;;;;;4956774;29;20066;-78
2022/07/29 03:37:44;;;;;;;5.95;1.52;;;20.70;99.90;;;;;;4956647;29;20030;-78
2022/07/29 03:40:14;;;;;;;4.68;1.50;;;20.70;99.90;;;;;;4973907;28;20027;-78
2022/07/29 03:42:42;;;;;;;2.60;1.35;;;20.60;99.90;;;;;;4976175;28;20015;-79
2022/07/29 03:45:13;;;;;;;3.60;1.65;;;20.70;99.90;;;;;;4976052;28;20047;-79
2022/07/29 03:47:45;;;;;;;3.13;1.48;;;20.70;99.90;;;;;;4956191;28;20055;-79
2022/07/29 03:50:14;;;;;;;7.30;1.67;;;20.60;99.90;;;;;;4937878;29;20055;-79
2022/07/29 03:52:40;;;;;;;6.55;1.42;;;20.60;99.90;;;;;;4952941;28;20015;-78
2022/07/29 03:55:07;;;;;;;6.63;1.52;;;20.50;99.90;;;;;;4939756;29;20070;-79
2022/07/29 03:57:34;;;;;;;2.92;1.10;;;20.50;99.90;;;;;;4956569;29;20365;-78
2022/07/29 04:00:03;;;;;;;6.10;1.38;;;20.40;99.90;;;;;;4956566;29;20023;-78
2022/07/29 04:02:29;;;;;;;6.35;1.50;;;20.30;99.90;;;;;;4956333;29;20503;-78
2022/07/29 04:04:55;;;;;;;6.47;1.67;;;20.30;99.90;;;;;;4956251;29;20085;-78
2022/07/29 04:07:20;;;;;;;3.78;1.50;;;20.30;99.90;;;;;;4965445;28;20383;-78
2022/07/29 04:09:46;;;;;;;4.63;1.60;;;20.00;99.90;;;;;;4973764;28;20121;-78
2022/07/29 04:12:11;;;;;;;6.95;1.67;;;19.70;99.90;;;;;;4937416;29;20035;-78
2022/07/29 04:14:37;;;;;;;4.05;1.58;;;19.50;99.90;;;;;;4936309;29;20086;-79
2022/07/29 04:17:04;;;;;;;5.15;1.55;;;19.90;99.90;;;;;;4919654;29;20541;-79
2022/07/29 04:19:30;;;;;;;11.48;2.00;;;20.10;99.90;;;;;;4937215;29;20484;-79
2022/07/29 04:21:56;;;;;;;8.23;2.17;;;19.80;99.90;;;;;;4920146;29;20501;-80
2022/07/29 04:24:22;;;;;;;8.57;1.60;;;19.90;99.90;;;;;;4937000;29;20028;-81
2022/07/29 04:26:48;;;;;;;4.28;1.40;;;19.80;99.90;;;;;;4936674;29;20510;-78
2022/07/29 04:29:14;;;;;;;4.35;1.55;;;19.70;99.90;;;;;;4947560;29;20078;-77
2022/07/29 04:31:40;;;;;;;5.57;2.08;;;19.80;99.90;;;;;;4938350;29;20031;-78
2022/07/29 04:34:07;;;;;;;7.38;1.92;;;19.80;99.90;;;;;;4956490;29;20074;-78
2022/07/29 04:36:32;;;;;;;5.45;2.13;;;19.50;99.90;;;;;;4955694;29;20051;-78
2022/07/29 04:38:58;;;;;;;5.80;1.65;;;19.40;99.90;;;;;;4955789;29;20027;-78
2022/07/29 04:41:24;;;;;;;6.68;1.40;;;19.50;99.90;;;;;;4955879;29;20027;-78
2022/07/29 04:43:49;;;;;;;5.20;1.60;;;19.70;99.90;;;;;;4945246;29;20403;-78
2022/07/29 04:46:15;;;;;;;4.65;1.45;;;19.70;99.90;;;;;;4937672;29;20034;-78
2022/07/29 04:48:41;;;;;;;6.50;1.73;;;19.50;99.90;;;;;;4936670;29;20035;-78
2022/07/29 04:51:06;;;;;;;6.07;1.85;;;19.60;99.90;;;;;;4936382;29;20031;-78
2022/07/29 04:53:32;;;;;;;3.53;1.38;;;19.70;99.90;;;;;;4936574;29;20031;-78
2022/07/29 04:55:58;;;;;;;5.85;1.75;;;19.60;99.90;;;;;;4945293;28;20070;-78
2022/07/29 04:58:23;;;;;;;11.45;1.88;;;19.50;99.90;;;;;;4955749;29;20042;-79
2022/07/29 05:00:50;;;;;;;8.98;1.73;;;19.60;99.90;;;;;;4954149;29;20034;-78
2022/07/29 05:03:15;;;;;;;3.90;1.63;;;19.60;99.90;;;;;;4955466;29;20483;-77
2022/07/29 05:05:42;;;;;;;4.53;1.75;;;19.70;99.90;;;;;;4964140;28;20065;-78
2022/07/29 05:08:07;;;;;;;3.92;1.45;;;19.70;99.90;;;;;;4974803;28;20034;-77
2022/07/29 05:10:37;;;;;;;9.48;2.05;;;19.60;99.90;;;;;;4960187;28;20032;-80
2022/07/29 05:13:06;;;;;;;11.88;1.83;;;19.70;99.90;;;;;;4942381;28;20467;-78
2022/07/29 05:15:34;;;;;;;10.85;1.73;;;19.70;99.90;;;;;;4933051;29;20020;-79
2022/07/29 05:18:00;;;;;;;4.43;1.50;;;19.70;99.90;;;;;;4942552;29;20070;-79
2022/07/29 05:20:28;;;;;;;5.22;1.70;;;19.70;99.90;;;;;;4952157;29;20256;-79
2022/07/29 05:23:03;;;;;;;9.07;1.60;;;19.70;99.90;;;;;;4937953;29;20510;-79
2022/07/29 05:25:29;;;;;;;11.90;2.20;;;19.70;99.90;;;;;;4939981;28;20066;-79
2022/07/29 05:27:55;;;;;;;8.95;1.88;;;19.80;99.90;;;;;;4955265;28;20486;-80
2022/07/29 05:30:21;;;;;;;7.63;1.90;;;19.80;99.90;;;;;;4968816;28;20023;-79
2022/07/29 05:32:47;;;;;;;5.80;1.73;;;19.70;99.90;;;;;;4973698;28;20119;-79
2022/07/29 05:35:14;;;;;;;8.10;2.10;;;19.60;99.90;;;;;;4964030;28;20124;-79
2022/07/29 05:37:39;;;;;;;2.92;1.50;;;19.50;99.90;;;;;;4942317;29;20126;-77
2022/07/29 05:40:05;;;;;;;6.70;1.73;;;19.50;99.90;;;;;;4940244;28;20166;-79
2022/07/29 05:42:31;;;;;;;6.55;2.20;;;19.40;99.90;;;;;;4936616;29;20095;-79
2022/07/29 05:44:57;;;;;;;7.30;1.90;;;19.30;99.90;;;;;;4955619;29;20039;-79
2022/07/29 05:47:23;;;;;;;7.53;2.15;;;19.30;99.90;;;;;;4952163;29;20031;-78
2022/07/29 05:49:50;;;;;;;7.65;1.95;;;19.30;99.90;;;;;;4918706;29;20503;-79
2022/07/29 05:52:16;;;;;;;12.75;2.75;;;19.20;99.90;;;;;;4935277;29;20106;-79
2022/07/29 05:54:42;;;;;;;5.78;1.98;;;19.20;99.90;;;;;;4935307;29;20500;-79
2022/07/29 05:57:08;;;;;;;5.10;1.80;;;19.00;99.90;;;;;;4922593;28;20042;-79
2022/07/29 05:59:37;;;;;;;5.07;2.08;;;18.90;99.90;;;;;;4971740;28;20461;-79
2022/07/29 06:02:04;;;;;;;6.85;1.70;;;19.10;99.90;;;;;;4939944;29;20487;-78
2022/07/29 06:04:31;;;;;;;6.13;2.30;;;19.20;99.90;;;;;;4941555;29;20424;-79
2022/07/29 06:06:57;;;;;;;8.02;1.88;;;19.10;99.90;;;;;;4954167;29;20031;-79
2022/07/29 06:09:22;;;;;;;6.32;2.03;;;19.00;99.90;;;;;;4954148;29;20388;-79
2022/07/29 06:11:48;;;;;;;5.28;1.85;;;18.80;99.90;;;;;;4947579;28;20111;-79
2022/07/29 06:14:14;;;;;;;6.80;2.00;;;18.80;99.90;;;;;;4936268;29;20495;-79
2022/07/29 06:16:40;;;;;;;8.15;2.25;;;18.90;99.90;;;;;;4968393;28;20483;-79
2022/07/29 06:19:05;;;;;;;5.65;1.80;;;19.20;99.90;;;;;;4959746;28;20050;-79
2022/07/29 06:21:31;;;;;;;8.70;2.63;;;19.20;99.90;;;;;;4956201;28;20031;-79
2022/07/29 06:23:57;;;;;;;7.88;2.28;;;19.20;99.90;;;;;;4973297;28;20030;-78
2022/07/29 06:26:22;;;;;;;5.57;2.22;;;18.70;99.90;;;;;;4974390;28;20082;-79
2022/07/29 06:28:48;;;;;;;9.63;2.50;;;18.80;99.90;;;;;;4973154;28;20034;-79
2022/07/29 06:31:14;;;;;;;11.18;2.85;;;18.90;99.90;;;;;;4968285;28;20038;-78
2022/07/29 11:14:59;;;;;;;6.97;2.53;;;27.30;98.20;;;;;;4995452;23;20089;-78
2022/07/29 11:17:25;;;;;;;10.07;3.30;;;27.30;98.50;;;;;;4941349;29;20039;-78
2022/07/29 11:19:51;;;;;;;5.35;3.13;;;27.30;96.30;;;;;;4953624;29;20096;-78
2022/07/29 11:22:37;;;;;;;8.82;2.80;;;27.10;96.10;;;;;;4936162;29;20490;-78
2022/07/29 11:25:16;;;;;;;4.43;2.08;;;26.80;98.60;;;;;;4954024;28;20024;-78
2022/07/29 11:27:42;;;;;;;6.78;2.47;;;26.90;96.80;;;;;;4957000;29;20082;-78
2022/07/29 11:30:09;;;;;;;10.05;2.70;;;26.50;97.20;;;;;;4957150;29;20030;-78
2022/07/29 11:32:42;;;;;;;6.28;2.25;;;26.20;97.10;;;;;;4957181;29;20043;-78
2022/07/29 11:35:23;;;;;;;5.05;2.05;;;27.10;96.30;;;;;;4957111;29;20029;-78
2022/07/29 11:38:22;;;;;;;5.82;1.77;;;26.20;97.10;;;;;;4938273;29;20027;-78
2022/07/29 11:41:13;;;;;;;6.18;2.20;;;26.40;96.80;;;;;;4937886;29;20028;-78
2022/07/29 11:43:48;;;;;;;5.57;2.55;;;27.30;95.30;;;;;;4937623;29;20032;-78
2022/07/29 11:46:14;;;;;;;5.75;1.92;;;27.30;94.40;;;;;;4937642;29;20364;-78
2022/07/29 11:48:44;;;;;;;5.35;1.88;;;27.60;93.30;;;;;;4937337;29;20024;-78
2022/07/29 11:51:11;;;;;;;6.22;2.08;;;27.70;92.20;;;;;;4937849;29;20031;-78
2022/07/29 11:53:39;;;;;;;3.78;1.70;;;27.90;90.30;;;;;;4937515;29;20024;-78
2022/07/29 11:56:08;;;;;;;4.68;2.00;;;27.20;91.10;;;;;;4938094;29;20509;-78
2022/07/29 11:58:34;;;;;;;11.13;2.10;;;27.00;90.90;;;;;;4920212;29;20055;-78
2022/07/29 12:01:00;;;;;;;16.30;1.95;;;27.30;90.50;;;;;;4937189;29;20063;-78
2022/07/29 12:03:28;;;;;;;3.50;1.70;;;28.10;90.70;;;;;;4937321;29;20019;-78
2022/07/29 12:05:54;;;;;;;3.58;1.60;;;27.90;90.60;;;;;;4937964;29;20020;-78
2022/07/29 12:08:21;;;;;;;6.80;1.70;;;27.20;91.50;;;;;;4937809;29;20035;-78
2022/07/29 12:10:49;;;;;;;8.15;2.08;;;26.90;93.30;;;;;;4937857;29;20388;-78
2022/07/29 12:13:17;;;;;;;6.68;2.05;;;26.90;94.40;;;;;;4943217;29;20047;-78
2022/07/29 12:15:51;;;;;;;4.60;1.80;;;26.90;93.90;;;;;;4936771;29;20038;-78
2022/07/29 12:18:18;;;;;;;11.45;1.83;;;26.70;93.80;;;;;;4920955;29;20038;-78
2022/07/29 12:20:45;;;;;;;5.75;2.30;;;26.50;94.70;;;;;;4937830;29;20052;-78
2022/07/29 12:23:14;;;;;;;7.50;1.92;;;26.30;95.50;;;;;;4937796;29;20103;-78
2022/07/29 12:25:41;;;;;;;4.30;1.77;;;26.30;96.10;;;;;;4950178;29;20027;-78
2022/07/29 12:28:12;;;;;;;6.13;1.77;;;26.30;95.70;;;;;;4956768;29;20027;-78
2022/07/29 12:30:42;;;;;;;5.72;1.92;;;26.30;96.20;;;;;;4956414;29;20023;-78
2022/07/29 12:33:20;;;;;;;4.88;1.80;;;26.20;96.80;;;;;;4934175;29;20567;-78
2022/07/29 12:35:49;;;;;;;6.40;1.85;;;26.20;96.20;;;;;;4948276;28;20034;-78
2022/07/29 12:38:16;;;;;;;6.25;2.00;;;26.10;95.40;;;;;;4945624;29;20058;-78
2022/07/29 12:40:42;;;;;;;5.43;2.15;;;26.20;95.80;;;;;;4948544;29;20086;-78
2022/07/29 12:43:12;;;;;;;6.20;2.20;;;26.20;95.00;;;;;;4955688;29;20164;-78
2022/07/29 12:45:40;;;;;;;5.07;1.90;;;26.40;95.60;;;;;;4947872;29;20031;-78
2022/07/29 12:48:08;;;;;;;6.78;2.00;;;26.60;95.00;;;;;;4950833;29;20031;-78
2022/07/29 12:50:36;;;;;;;5.18;2.10;;;26.80;93.70;;;;;;4925109;29;20027;-78
2022/07/29 12:53:13;;;;;;;2.75;1.60;;;26.90;93.50;;;;;;4950460;29;20051;-78
2022/07/29 12:55:51;;;;;;;5.10;1.90;;;27.10;91.80;;;;;;4943551;29;20019;-78
2022/07/29 12:58:36;;;;;;;6.93;1.80;;;27.00;91.30;;;;;;4955964;29;20118;-78
2022/07/29 13:01:17;;;;;;;5.47;1.70;;;26.70;91.90;;;;;;4931599;29;20027;-78
2022/07/29 13:03:56;;;;;;;5.82;1.90;;;26.70;93.10;;;;;;4946370;29;20015;-78
2022/07/29 13:06:33;;;;;;;5.60;1.83;;;26.20;94.40;;;;;;4955606;29;20023;-78
2022/07/29 13:09:07;;;;;;;6.78;2.25;;;26.10;94.90;;;;;;4945423;29;20086;-74
2022/07/29 13:11:40;;;;;;;8.02;1.65;;;25.80;96.10;;;;;;4955697;29;20015;-76
2022/07/29 13:14:11;;;;;;;4.22;1.83;;;25.80;95.80;;;;;;4952663;29;20047;-74
2022/07/29 13:16:57;;;;;;;5.82;1.70;;;25.90;95.40;;;;;;4946441;29;20078;-76
2022/07/29 13:19:37;;;;;;;8.38;2.00;;;25.90;95.80;;;;;;4951395;29;20494;-75
2022/07/29 13:22:04;;;;;;;10.07;1.63;;;25.90;95.60;;;;;;4929933;29;20035;-72
2022/07/29 13:24:30;;;;;;;4.95;1.80;;;25.90;96.20;;;;;;4955293;29;20042;-71
2022/07/29 13:26:55;;;;;;;5.18;2.00;;;25.80;95.40;;;;;;4954436;29;20031;-72
2022/07/29 13:29:21;;;;;;;5.20;1.85;;;25.60;95.80;;;;;;4954179;29;20015;-71
2022/07/29 13:31:46;;;;;;;3.78;1.45;;;25.80;96.00;;;;;;4923904;29;20388;-72
2022/07/29 13:34:12;;;;;;;5.07;1.70;;;25.40;96.40;;;;;;4945354;29;20679;-72
2022/07/29 13:36:38;;;;;;;6.10;2.05;;;25.60;96.30;;;;;;4952073;29;20530;-72
2022/07/29 13:39:03;;;;;;;7.35;1.95;;;25.40;96.40;;;;;;4951566;29;20039;-72
2022/07/29 13:41:29;;;;;;;3.13;1.58;;;25.60;96.20;;;;;;4941096;29;20035;-72
2022/07/29 13:43:55;;;;;;;3.35;1.60;;;25.60;95.70;;;;;;4942270;29;20106;-75
2022/07/29 13:46:22;;;;;;;3.45;1.67;;;25.70;95.70;;;;;;4939463;29;20050;-72
2022/07/29 13:48:48;;;;;;;4.65;1.48;;;25.70;96.40;;;;;;4942003;29;20020;-72
2022/07/29 13:51:13;;;;;;;4.88;1.65;;;25.80;96.70;;;;;;4942920;29;20035;-72
2022/07/29 13:53:39;;;;;;;2.83;1.55;;;25.50;96.70;;;;;;4954294;29;20027;-72
2022/07/29 13:56:05;;;;;;;6.63;1.52;;;25.90;96.30;;;;;;4954532;29;20027;-72
2022/07/29 13:58:33;;;;;;;5.30;1.67;;;25.80;96.30;;;;;;4945617;29;20070;-72
2022/07/29 14:00:58;;;;;;;6.43;1.83;;;25.90;96.60;;;;;;4935619;29;20042;-72
2022/07/29 14:03:24;;;;;;;5.25;1.60;;;26.10;96.90;;;;;;4912927;29;20415;-72
2022/07/29 14:05:50;;;;;;;5.53;1.63;;;26.20;96.70;;;;;;4933996;29;20506;-72
2022/07/29 14:08:16;;;;;;;3.67;1.60;;;26.00;96.80;;;;;;4934227;29;20015;-72
2022/07/29 14:10:42;;;;;;;4.68;1.80;;;25.80;98.00;;;;;;4934357;29;20026;-72
2022/07/29 14:13:08;;;;;;;6.97;2.00;;;25.80;98.80;;;;;;4935365;29;20043;-72
2022/07/29 14:15:33;;;;;;;3.78;1.85;;;25.70;98.80;;;;;;4930763;29;20031;-72
2022/07/29 14:17:59;;;;;;;5.32;2.08;;;25.60;99.40;;;;;;4944059;29;20031;-72
2022/07/29 14:20:25;;;;;;;10.50;1.65;;;25.60;99.90;;;;;;4943172;29;20054;-72
2022/07/29 14:22:50;;;;;;;3.70;1.70;;;25.30;99.90;;;;;;4942713;29;20097;-72
2022/07/29 14:25:16;;;;;;;5.38;1.83;;;25.40;99.90;;;;;;4943938;29;20104;-72
2022/07/29 14:27:43;;;;;;;4.13;1.50;;;25.30;99.90;;;;;;4942936;29;20027;-72
2022/07/29 14:30:09;;;;;;;7.25;1.67;;;25.30;99.90;;;;;;4943007;29;20372;-72
2022/07/29 14:32:35;;;;;;;6.47;2.20;;;25.30;99.90;;;;;;4944441;29;20479;-72
2022/07/29 14:35:00;;;;;;;6.70;1.88;;;25.20;99.90;;;;;;4942503;29;20043;-72
2022/07/29 14:37:26;;;;;;;8.50;2.20;;;25.20;99.90;;;;;;4943584;29;20031;-72
2022/07/29 14:39:53;;;;;;;11.65;1.60;;;25.30;99.90;;;;;;4947874;29;20469;-72
2022/07/29 14:42:19;;;;;;;3.35;1.40;;;25.40;99.90;;;;;;4935053;29;20031;-72
2022/07/29 14:44:45;;;;;;;3.72;1.35;;;25.40;99.90;;;;;;4920103;29;20028;-72
2022/07/29 14:47:10;;;;;;;4.80;2.08;;;25.50;99.90;;;;;;4947415;29;20024;-72
2022/07/29 14:49:36;;;;;;;5.97;1.80;;;25.60;99.90;;;;;;4954643;29;20026;-72
2022/07/29 14:52:02;;;;;;;5.75;1.95;;;25.50;99.90;;;;;;4952102;29;20039;-72
2022/07/29 14:54:28;;;;;;;6.60;1.58;;;25.50;99.90;;;;;;4932524;29;20028;-79
2022/07/29 14:56:56;;;;;;;3.83;1.95;;;25.70;99.90;;;;;;4921065;29;20035;-79
2022/07/29 14:59:22;;;;;;;5.32;1.60;;;25.60;99.90;;;;;;4937648;29;20034;-79
2022/07/29 15:01:47;;;;;;;5.05;1.95;;;25.70;99.90;;;;;;4947734;29;20183;-81
2022/07/29 15:04:13;;;;;;;4.97;1.98;;;26.20;99.50;;;;;;4945846;29;20028;-79
2022/07/29 15:06:39;;;;;;;4.53;1.98;;;26.00;99.70;;;;;;4950927;29;20399;-79
2022/07/29 15:09:04;;;;;;;4.53;1.58;;;25.70;99.70;;;;;;4949738;29;20894;-78
2022/07/29 15:11:30;;;;;;;9.05;1.85;;;26.00;99.70;;;;;;4939591;29;20406;-82
2022/07/29 15:13:56;;;;;;;5.20;1.90;;;26.30;98.90;;;;;;4940761;29;20044;-80
2022/07/29 15:16:21;;;;;;;7.07;1.92;;;26.30;98.80;;;;;;4956040;29;20037;-79
2022/07/29 15:18:47;;;;;;;4.22;1.52;;;26.30;99.20;;;;;;4958035;29;20062;-80
2022/07/29 15:21:13;;;;;;;5.47;1.63;;;26.70;98.10;;;;;;4943580;29;20059;-80
2022/07/29 15:23:39;;;;;;;4.97;1.60;;;26.90;97.20;;;;;;4950352;29;20023;-83
2022/07/29 15:26:04;;;;;;;7.55;1.95;;;26.80;96.20;;;;;;4955855;29;20083;-80
2022/07/29 17:07:56;;;;;;;4.10;1.70;;;25.00;99.90;;;;;;5116679;23;20051;-78
2022/07/29 17:10:21;;;;;;;3.15;1.60;;;24.90;99.90;;;;;;4954863;28;20073;-79
2022/07/29 17:12:47;;;;;;;5.50;1.67;;;25.10;99.90;;;;;;4956090;29;20415;-79
2022/07/29 17:15:14;;;;;;;3.83;1.98;;;25.10;99.90;;;;;;4955513;29;20035;-78
2022/07/29 17:17:40;;;;;;;4.07;1.77;;;25.20;99.90;;;;;;4956162;29;20031;-79
2022/07/29 17:20:08;;;;;;;4.72;1.67;;;25.00;99.90;;;;;;4955858;29;20079;-79
2022/07/29 17:22:33;;;;;;;9.60;2.33;;;24.90;99.90;;;;;;4955529;28;20031;-78
2022/07/29 17:24:59;;;;;;;4.72;1.70;;;25.00;99.90;;;;;;4946866;28;20031;-81
2022/07/29 17:27:25;;;;;;;3.67;1.80;;;24.70;99.90;;;;;;4960080;28;20069;-81
2022/07/29 17:29:50;;;;;;;6.25;1.60;;;24.70;99.90;;;;;;4956795;28;20481;-81
2022/07/29 17:32:16;;;;;;;4.25;1.73;;;24.80;99.90;;;;;;4966489;28;20487;-81
2022/07/29 17:34:42;;;;;;;5.50;1.92;;;24.90;99.90;;;;;;4962384;28;20114;-80
2022/07/29 17:37:09;;;;;;;8.35;1.80;;;24.90;99.90;;;;;;4961538;28;20023;-80
2022/07/29 17:39:36;;;;;;;4.90;1.95;;;25.10;99.90;;;;;;4946304;28;20027;-80
2022/07/29 17:42:03;;;;;;;4.88;1.73;;;25.00;99.90;;;;;;4956198;28;20031;-81
2022/07/29 17:44:28;;;;;;;7.93;1.90;;;25.20;99.90;;;;;;4954454;28;20089;-81
2022/07/29 17:46:54;;;;;;;3.22;1.83;;;25.00;99.90;;;;;;4961050;28;20027;-80
2022/07/29 17:49:20;;;;;;;5.53;1.77;;;25.00;99.90;;;;;;4965918;28;20031;-81
2022/07/29 17:51:45;;;;;;;4.43;2.10;;;25.10;99.90;;;;;;4963074;28;20116;-80
2022/07/29 17:54:11;;;;;;;4.05;1.83;;;25.00;99.90;;;;;;4962570;28;20059;-80
2022/07/29 17:56:37;;;;;;;4.65;1.58;;;24.70;99.90;;;;;;4957972;28;20072;-79
2022/07/29 17:59:05;;;;;;;3.60;1.50;;;24.60;99.90;;;;;;4965625;28;20106;-79
2022/07/29 18:01:32;;;;;;;7.72;1.80;;;24.70;99.90;;;;;;4971971;28;20089;-80
2022/07/29 18:03:58;;;;;;;5.20;1.90;;;24.70;99.90;;;;;;4932723;28;20454;-80
2022/07/29 18:06:24;;;;;;;6.05;1.70;;;24.70;99.90;;;;;;4956570;28;20071;-79
2022/07/29 18:08:50;;;;;;;2.78;1.30;;;24.70;99.90;;;;;;4971729;28;20027;-80
2022/07/29 18:11:16;;;;;;;6.35;1.95;;;24.50;99.90;;;;;;4967932;28;20026;-81
2022/07/29 18:13:41;;;;;;;2.70;1.40;;;24.50;99.90;;;;;;4973106;28;20383;-80
2022/07/29 18:16:08;;;;;;;4.60;1.50;;;24.40;99.90;;;;;;4972584;28;20037;-81
2022/07/29 18:18:34;;;;;;;3.05;1.67;;;24.40;99.90;;;;;;4972989;28;20027;-81
2022/07/29 18:21:00;;;;;;;3.72;1.50;;;24.40;99.90;;;;;;4953369;28;20030;-81
2022/07/29 18:23:26;;;;;;;4.80;1.58;;;24.50;99.90;;;;;;4963201;28;20480;-80
2022/07/29 18:25:51;;;;;;;6.55;1.52;;;24.30;99.90;;;;;;4971643;28;20027;-80
2022/07/29 18:28:17;;;;;;;3.90;1.60;;;24.40;99.90;;;;;;4955900;28;20030;-81
2022/07/29 18:30:44;;;;;;;7.40;1.70;;;24.30;99.90;;;;;;4956011;28;20410;-80
2022/07/29 18:33:14;;;;;;;2.88;1.40;;;24.20;99.90;;;;;;4964493;28;20023;-80
2022/07/29 18:35:39;;;;;;;6.75;1.80;;;24.10;99.90;;;;;;4962495;28;20019;-80
2022/07/29 18:38:05;;;;;;;3.10;1.30;;;24.10;99.90;;;;;;4942090;28;20099;-80
2022/07/29 18:40:31;;;;;;;3.38;1.50;;;23.90;99.90;;;;;;4973277;28;20026;-80
2022/07/29 18:42:56;;;;;;;3.08;1.30;;;23.90;99.90;;;;;;4963111;28;20027;-80
2022/07/29 18:45:23;;;;;;;10.32;2.30;;;23.90;99.90;;;;;;4967966;28;20027;-77
2022/07/29 18:47:48;;;;;;;4.22;1.90;;;23.80;99.90;;;;;;4967157;28;20847;-76
2022/07/29 18:50:15;;;;;;;3.75;1.67;;;23.80;99.90;;;;;;4973490;28;20090;-80
2022/07/29 18:52:41;;;;;;;3.30;1.55;;;23.60;99.90;;;;;;4973891;28;20109;-80
2022/07/29 18:55:07;;;;;;;3.45;1.75;;;23.60;99.90;;;;;;4974011;28;20033;-80
2022/07/29 18:57:33;;;;;;;5.85;2.15;;;23.50;99.90;;;;;;4965662;28;20098;-80
2022/07/29 18:59:59;;;;;;;4.13;1.35;;;23.50;99.90;;;;;;4954333;29;20495;-80
2022/07/29 19:02:26;;;;;;;4.10;1.40;;;23.50;99.90;;;;;;4954393;29;20106;-80
2022/07/29 19:04:53;;;;;;;8.38;1.95;;;23.40;99.90;;;;;;4940395;29;20434;-79
2022/07/29 19:07:22;;;;;;;4.53;1.52;;;23.40;99.90;;;;;;4952155;28;20059;-80
2022/07/29 19:09:48;;;;;;;5.28;1.90;;;23.20;99.90;;;;;;4955724;28;20073;-80
2022/07/29 19:12:13;;;;;;;3.92;1.83;;;23.20;99.90;;;;;;4967103;28;20027;-80